Startpagina
METAR-TAF:

METAR-TAF

Vliegvelden :

David, Panama

breedte: 08-24N, lengte: 082-25W, hoogte: 29 m

Actueel weer

Dit bericht is 5 uur en het 14 minuten geleden gemaakt, om 22:00 UTC
Wind 4 kt uit het zuidzuidoosten
Temperatuur 30°C
Vochtigheid 66%
Druk 1010 hPa
Zicht 10 km of meer
Verspreide wolken op 1500 ft, Stapelwolken.

METAR: MPDA 282200Z 15004KT 9999 SCT015TCU 30/23 Q1010

Tijdstip: 22:14 (03:14 UTC)

Verwachting

Dit bericht is 4 uur en het 14 minuten geleden gemaakt, om 23:00 UTC
Verwachting geldig van 29 om 00 UTC tot 29 om 12 UTC
Wind 8 kt uit het zuidoosten
Zicht 10 km of meer
Weinig wolken op 1500 ft, Stapelwolken.
Tijdelijke
van 29 om 05 UTC tot 29 om 07 UTC
Wind 2 kt uit variabele richting

TAF: MPDA 282300Z 2900/2912 14008KT 9999 FEW015TCU TEMPO 2905/2907 VRB02KT

Waarnemingen en weersverwachtingen van meer dan 4000 vliegvelden (METAR en TAF).

De beschikbare stations zijn de gele en rode punten op de kaart.

Ga met uw muis naar het station om de naam te zien.

Klik dan om waarnemingen en weersverwachtingen te zien.

kaart wijzigen: klik op de groene knoppen met een zwart kruis om in te zoomen, op de groene knop met een streepje om uit te zoomen of op de groene pijlen voor aangrenzende kaarten.


METAR-TAF: